createdAt,value
2023-04-16T00:00:28.449Z,23.38
2023-04-16T00:05:30.769Z,23.19
2023-04-16T00:10:32.977Z,23.73
2023-04-16T00:15:35.043Z,23.62
2023-04-16T00:20:37.169Z,23.79
2023-04-16T00:25:39.097Z,22.34
2023-04-16T00:30:41.402Z,24.19
2023-04-16T00:35:46.782Z,24.28
2023-04-16T00:40:49.122Z,24.26
2023-04-16T00:45:52.863Z,24.29
2023-04-16T00:50:55.657Z,24.74
2023-04-16T00:55:58.097Z,24.89
2023-04-16T01:01:00.652Z,25.00
2023-04-16T01:06:03.146Z,25.46
2023-04-16T01:11:06.232Z,25.15
2023-04-16T01:16:10.823Z,25.78
2023-04-16T01:21:13.217Z,25.43
2023-04-16T01:26:15.622Z,25.36
2023-04-16T01:31:17.750Z,25.44
2023-04-16T01:36:35.568Z,25.56
2023-04-16T01:41:37.718Z,25.59
2023-04-16T01:46:40.031Z,26.12
2023-04-16T01:51:42.324Z,26.30
2023-04-16T01:56:45.605Z,26.37
2023-04-16T02:01:47.779Z,26.54
2023-04-16T02:06:50.126Z,26.22
2023-04-16T02:11:52.179Z,26.12
2023-04-16T02:16:54.486Z,26.50
2023-04-16T02:22:10.665Z,26.85
2023-04-16T02:27:12.777Z,26.37
2023-04-16T02:32:18.524Z,26.27
2023-04-16T02:37:22.143Z,26.99
2023-04-16T02:42:25.169Z,26.78
2023-04-16T02:47:27.413Z,26.96
2023-04-16T02:52:29.618Z,27.33
2023-04-16T02:57:31.801Z,27.34
2023-04-16T03:02:34.078Z,27.44
2023-04-16T03:07:36.365Z,27.37
2023-04-16T03:12:39.313Z,27.82
2023-04-16T03:17:42.306Z,27.89
2023-04-16T03:22:44.941Z,28.10
2023-04-16T03:27:48.257Z,27.44
2023-04-16T03:32:52.143Z,27.77
2023-04-16T03:37:54.469Z,27.73
2023-04-16T03:42:56.736Z,27.91
2023-04-16T03:47:58.990Z,27.71
2023-04-16T03:53:01.704Z,27.95
2023-04-16T03:58:05.069Z,28.00
2023-04-16T04:03:08.467Z,27.71
2023-04-16T04:08:11.257Z,27.96
2023-04-16T04:13:13.642Z,27.41
2023-04-16T04:18:16.568Z,27.57
2023-04-16T04:23:19.382Z,27.33
2023-04-16T04:28:22.516Z,27.40
2023-04-16T04:33:25.706Z,26.54
2023-04-16T04:38:27.960Z,26.78
2023-04-16T04:43:30.189Z,26.28
2023-04-16T04:48:32.320Z,25.64
2023-04-16T04:53:35.051Z,25.33
2023-04-16T04:58:37.267Z,24.45
2023-04-16T05:03:39.716Z,24.75
2023-04-16T05:08:41.898Z,24.29
2023-04-16T05:13:43.876Z,23.28
2023-04-16T05:18:46.123Z,22.01
2023-04-16T05:23:48.381Z,21.54
2023-04-16T05:28:50.587Z,20.96
2023-04-16T05:33:52.789Z,20.66
2023-04-16T05:38:55.074Z,19.81
2023-04-16T05:43:57.276Z,21.04
2023-04-16T05:48:59.531Z,19.47
2023-04-16T05:54:01.879Z,19.48
2023-04-16T05:59:03.911Z,20.15
2023-04-16T06:04:06.314Z,17.81
2023-04-16T06:09:08.902Z,16.56
2023-04-16T06:14:11.328Z,15.83
2023-04-16T06:19:13.412Z,14.99
2023-04-16T06:24:15.639Z,14.43
2023-04-16T06:29:17.780Z,13.88
2023-04-16T06:34:19.950Z,12.70
2023-04-16T06:39:22.086Z,12.49
2023-04-16T06:44:24.282Z,11.85
2023-04-16T06:49:26.434Z,11.46
2023-04-16T06:54:28.647Z,11.33
2023-04-16T06:59:30.996Z,11.37
2023-04-16T07:04:33.069Z,11.14
2023-04-16T07:09:35.409Z,10.57
2023-04-16T07:14:37.606Z,10.79
2023-04-16T07:19:39.684Z,10.66
2023-04-16T07:24:41.935Z,11.19
2023-04-16T07:29:45.765Z,11.21
2023-04-16T07:34:48.018Z,10.80
2023-04-16T07:39:50.129Z,10.00
2023-04-16T07:44:52.287Z,9.75
2023-04-16T07:49:54.436Z,9.36
2023-04-16T07:54:56.623Z,9.47
2023-04-16T07:59:58.852Z,9.32
2023-04-16T08:05:01.083Z,10.29
2023-04-16T08:10:03.390Z,10.87
2023-04-16T08:15:08.482Z,10.66
2023-04-16T08:20:13.024Z,10.05
2023-04-16T08:25:17.254Z,9.09
2023-04-16T08:30:19.686Z,9.07
2023-04-16T08:35:21.900Z,8.92
2023-04-16T08:40:28.769Z,9.52
2023-04-16T08:45:35.141Z,9.21
2023-04-16T08:50:37.666Z,8.36
2023-04-16T08:55:43.722Z,7.99
2023-04-16T09:00:46.503Z,7.55
2023-04-16T09:05:49.749Z,7.51
2023-04-16T09:10:52.034Z,7.26
2023-04-16T09:15:54.751Z,6.59
2023-04-16T09:20:57.331Z,6.15
2023-04-16T09:25:59.890Z,5.15
2023-04-16T09:31:09.378Z,6.01
2023-04-16T09:36:11.705Z,5.71
2023-04-16T09:41:16.410Z,6.03
2023-04-16T09:46:18.670Z,6.36
2023-04-16T09:51:20.952Z,6.25
2023-04-16T09:56:30.446Z,7.12
2023-04-16T10:01:32.954Z,7.72
2023-04-16T10:06:35.086Z,8.02
2023-04-16T10:11:37.870Z,7.94
2023-04-16T10:16:41.254Z,8.19
2023-04-16T10:21:43.550Z,8.12
2023-04-16T10:26:47.014Z,8.10
2023-04-16T10:31:50.566Z,8.37
2023-04-16T10:36:54.705Z,8.47
2023-04-16T10:42:13.414Z,8.37
2023-04-16T10:47:15.770Z,8.52
2023-04-16T10:52:18.068Z,7.87
2023-04-16T10:57:20.758Z,7.54
2023-04-16T11:02:29.234Z,6.79
2023-04-16T11:07:35.328Z,6.98
2023-04-16T11:12:39.899Z,6.34
2023-04-16T11:17:48.416Z,5.49
2023-04-16T11:22:52.135Z,6.08
2023-04-16T11:27:54.903Z,5.46
2023-04-16T11:32:57.335Z,5.89
2023-04-16T11:37:59.733Z,6.34
2023-04-16T11:43:04.064Z,5.74
2023-04-16T11:48:07.314Z,5.80
2023-04-16T11:53:10.393Z,5.46
2023-04-16T11:58:16.612Z,6.04
2023-04-16T12:03:37.657Z,6.45
2023-04-16T12:08:40.078Z,6.91
2023-04-16T12:13:42.194Z,6.65
2023-04-16T12:19:01.408Z,6.36
2023-04-16T12:24:03.852Z,6.53
2023-04-16T12:29:26.021Z,6.57
2023-04-16T12:34:46.587Z,6.37
2023-04-16T12:39:50.188Z,7.20
2023-04-16T12:44:52.305Z,7.16
2023-04-16T12:49:54.348Z,7.06
2023-04-16T12:54:56.531Z,7.08
2023-04-16T12:59:59.006Z,7.17
2023-04-16T13:05:01.651Z,7.82
2023-04-16T13:10:06.651Z,7.63
2023-04-16T13:15:09.606Z,8.03
2023-04-16T13:20:11.956Z,7.78
2023-04-16T13:25:14.203Z,8.26
2023-04-16T13:30:16.491Z,8.23
2023-04-16T13:35:18.761Z,8.60
2023-04-16T13:40:21.148Z,8.99
2023-04-16T13:45:23.387Z,9.11
2023-04-16T13:50:25.591Z,9.67
2023-04-16T13:55:27.961Z,10.51
2023-04-16T14:00:30.192Z,10.39
2023-04-16T14:05:32.372Z,10.73
2023-04-16T14:10:35.257Z,10.94
2023-04-16T14:15:37.399Z,11.37
2023-04-16T14:20:40.131Z,11.51
2023-04-16T14:25:42.221Z,11.41
2023-04-16T14:30:44.438Z,12.11
2023-04-16T14:35:46.718Z,11.87
2023-04-16T14:40:49.114Z,12.37
2023-04-16T14:45:51.319Z,12.12
2023-04-16T14:50:54.032Z,12.49
2023-04-16T14:55:59.094Z,12.48
2023-04-16T15:01:01.371Z,12.87
2023-04-16T15:06:03.634Z,13.14
2023-04-16T15:11:05.894Z,13.09
2023-04-16T15:16:08.103Z,13.30
2023-04-16T15:21:12.400Z,13.47
2023-04-16T15:26:15.009Z,13.81
2023-04-16T15:31:17.152Z,13.76
2023-04-16T15:36:20.010Z,14.29
2023-04-16T15:41:22.574Z,14.01
2023-04-16T15:46:24.770Z,14.08
2023-04-16T15:51:29.420Z,14.09
2023-04-16T15:56:31.734Z,14.29
2023-04-16T16:01:33.960Z,14.53
2023-04-16T16:06:41.892Z,14.54
2023-04-16T16:11:44.052Z,14.20
2023-04-16T16:16:46.271Z,14.44
2023-04-16T16:21:48.424Z,14.80
2023-04-16T16:26:50.761Z,15.32
2023-04-16T16:31:53.032Z,14.65
2023-04-16T16:36:55.180Z,15.13
2023-04-16T16:41:57.613Z,15.29
2023-04-16T16:46:59.925Z,15.32
2023-04-16T16:52:02.177Z,15.19
2023-04-16T16:57:04.286Z,15.29
2023-04-16T17:02:06.679Z,14.40
2023-04-16T17:07:08.842Z,16.00
2023-04-16T17:12:11.274Z,16.61
2023-04-16T17:17:13.376Z,16.28
2023-04-16T17:22:15.744Z,15.61
2023-04-16T17:27:18.139Z,17.47
2023-04-16T17:32:20.472Z,17.39
2023-04-16T17:37:23.642Z,16.92
2023-04-16T17:42:25.869Z,17.88
2023-04-16T17:47:28.151Z,17.46
2023-04-16T17:52:30.665Z,18.56
2023-04-16T17:57:32.921Z,18.56
2023-04-16T18:02:35.315Z,18.44
2023-04-16T18:07:39.098Z,18.86
2023-04-16T18:12:41.256Z,18.71
2023-04-16T18:17:43.554Z,19.14
2023-04-16T18:22:46.341Z,18.82
2023-04-16T18:27:48.403Z,18.69
2023-04-16T18:33:16.576Z,17.62
2023-04-16T18:38:13.741Z,18.45
2023-04-16T18:43:16.310Z,18.93
2023-04-16T18:48:18.386Z,19.04
2023-04-16T18:53:21.361Z,17.33
2023-04-16T18:58:23.454Z,19.16
2023-04-16T19:03:27.378Z,17.44
2023-04-16T19:08:29.556Z,19.13
2023-04-16T19:13:32.427Z,17.65
2023-04-16T19:18:34.486Z,19.09
2023-04-16T19:23:36.570Z,17.78
2023-04-16T19:28:38.932Z,19.18
2023-04-16T19:33:41.713Z,18.99
2023-04-16T19:38:43.921Z,18.99
2023-04-16T19:43:46.213Z,19.30
2023-04-16T19:48:48.399Z,19.35
2023-04-16T19:53:50.660Z,19.39
2023-04-16T19:58:52.901Z,19.41
2023-04-16T20:03:54.885Z,17.54
2023-04-16T20:08:57.458Z,19.32
2023-04-16T20:14:01.030Z,19.19
2023-04-16T20:19:08.578Z,19.37
2023-04-16T20:24:11.222Z,19.84
2023-04-16T20:29:13.397Z,19.37
2023-04-16T20:34:15.714Z,19.47
2023-04-16T20:39:20.497Z,19.17
2023-04-16T20:44:33.273Z,19.89
2023-04-16T20:49:35.836Z,20.24
2023-04-16T20:54:38.005Z,20.00
2023-04-16T20:59:40.188Z,20.39
2023-04-16T21:04:42.535Z,19.98
2023-04-16T21:09:44.884Z,20.42
2023-04-16T21:14:46.831Z,18.75
2023-04-16T21:19:49.376Z,20.02
2023-04-16T21:24:51.585Z,20.56
2023-04-16T21:29:53.541Z,18.61
2023-04-16T21:34:55.869Z,20.42
2023-04-16T21:39:58.083Z,20.53
2023-04-16T21:45:00.078Z,19.41
2023-04-16T21:50:02.184Z,20.25
2023-04-16T21:55:08.891Z,20.57
2023-04-16T22:00:13.980Z,20.89
2023-04-16T22:05:16.388Z,21.07
2023-04-16T22:10:19.001Z,20.80
2023-04-16T22:15:22.687Z,20.53
2023-04-16T22:20:24.980Z,20.78
2023-04-16T22:25:26.969Z,19.30
2023-04-16T22:30:29.104Z,21.36
2023-04-16T22:35:31.526Z,21.38
2023-04-16T22:40:33.786Z,21.33
2023-04-16T22:45:37.519Z,21.67
2023-04-16T22:50:40.698Z,21.28
2023-04-16T22:55:42.779Z,21.57
2023-04-16T23:00:44.859Z,19.85
2023-04-16T23:05:47.027Z,21.34
2023-04-16T23:10:49.185Z,21.49
2023-04-16T23:15:51.550Z,21.64
2023-04-16T23:20:53.947Z,21.75
2023-04-16T23:25:56.129Z,21.63
2023-04-16T23:30:58.247Z,21.96
2023-04-16T23:36:00.519Z,19.97
2023-04-16T23:41:02.610Z,21.05
2023-04-16T23:46:04.686Z,20.07
2023-04-16T23:51:06.814Z,21.60
2023-04-16T23:56:11.353Z,19.70
